createdAt,value
2019-03-19T00:01:30.851Z,13.17
2019-03-19T00:03:58.618Z,10.20
2019-03-19T00:06:26.383Z,9.40
2019-03-19T00:08:54.174Z,7.37
2019-03-19T00:11:22.014Z,7.23
2019-03-19T00:13:49.768Z,7.40
2019-03-19T00:16:17.568Z,6.97
2019-03-19T00:18:45.338Z,7.57
2019-03-19T00:21:13.201Z,7.20
2019-03-19T00:23:40.956Z,7.40
2019-03-19T00:26:08.723Z,7.50
2019-03-19T00:28:38.913Z,7.67
2019-03-19T00:31:05.936Z,7.90
2019-03-19T00:33:33.750Z,9.07
2019-03-19T00:36:01.554Z,7.80
2019-03-19T00:38:29.316Z,7.77
2019-03-19T00:40:57.095Z,8.20
2019-03-19T00:43:24.828Z,7.73
2019-03-19T00:45:52.619Z,8.13
2019-03-19T00:48:20.337Z,8.40
2019-03-19T00:50:48.065Z,9.17
2019-03-19T00:53:15.894Z,9.00
2019-03-19T00:55:43.651Z,8.73
2019-03-19T00:58:11.424Z,8.30
2019-03-19T01:00:39.183Z,8.73
2019-03-19T01:03:06.976Z,8.57
2019-03-19T01:05:34.707Z,8.30
2019-03-19T01:08:02.500Z,9.00
2019-03-19T01:10:30.371Z,8.63
2019-03-19T01:12:58.128Z,8.57
2019-03-19T01:15:25.840Z,8.53
2019-03-19T01:17:53.540Z,8.20
2019-03-19T01:20:21.325Z,8.63
2019-03-19T01:22:49.023Z,8.47
2019-03-19T01:25:16.891Z,8.37
2019-03-19T01:27:44.751Z,7.80
2019-03-19T01:30:12.707Z,8.73
2019-03-19T01:32:40.428Z,8.63
2019-03-19T01:35:08.220Z,8.40
2019-03-19T01:37:35.965Z,8.30
2019-03-19T01:40:03.718Z,7.70
2019-03-19T01:42:31.540Z,7.53
2019-03-19T01:44:59.271Z,7.43
2019-03-19T01:47:27.220Z,8.30
2019-03-19T01:49:55.206Z,7.87
2019-03-19T01:52:23.006Z,7.53
2019-03-19T01:54:50.698Z,7.47
2019-03-19T01:57:18.432Z,8.33
2019-03-19T01:59:46.212Z,7.13
2019-03-19T02:02:13.934Z,7.40
2019-03-19T02:04:41.788Z,7.23
2019-03-19T02:07:09.598Z,8.10
2019-03-19T02:09:37.549Z,9.03
2019-03-19T02:12:05.350Z,7.63
2019-03-19T02:14:33.119Z,8.00
2019-03-19T02:17:00.852Z,7.63
2019-03-19T02:19:28.676Z,7.60
2019-03-19T02:21:56.634Z,7.67
2019-03-19T02:24:24.483Z,7.33
2019-03-19T02:26:52.278Z,7.53
2019-03-19T02:29:20.231Z,8.00
2019-03-19T02:31:47.979Z,7.57
2019-03-19T02:34:15.876Z,7.90
2019-03-19T02:36:43.608Z,7.67
2019-03-19T02:39:11.306Z,7.07
2019-03-19T02:41:39.065Z,6.80
2019-03-19T02:44:06.822Z,7.43
2019-03-19T02:46:34.595Z,7.50
2019-03-19T02:49:02.351Z,6.87
2019-03-19T02:51:30.048Z,7.17
2019-03-19T02:53:57.755Z,6.87
2019-03-19T02:56:32.778Z,7.47
2019-03-19T02:58:55.061Z,7.20
2019-03-19T03:01:22.806Z,7.13
2019-03-19T03:03:50.605Z,6.97
2019-03-19T03:06:18.474Z,7.00
2019-03-19T03:08:46.207Z,7.40
2019-03-19T03:11:13.923Z,7.70
2019-03-19T03:13:41.751Z,7.67
2019-03-19T03:16:09.489Z,7.50
2019-03-19T03:18:37.293Z,6.73
2019-03-19T03:21:05.081Z,7.10
2019-03-19T03:23:32.825Z,7.17
2019-03-19T03:26:00.522Z,7.63
2019-03-19T03:28:28.259Z,7.27
2019-03-19T03:30:56.017Z,7.77
2019-03-19T03:33:23.708Z,7.87
2019-03-19T03:35:51.543Z,8.27
2019-03-19T03:38:19.236Z,8.17
2019-03-19T03:40:47.091Z,7.60
2019-03-19T03:43:14.838Z,8.27
2019-03-19T03:45:42.544Z,8.20
2019-03-19T03:48:10.370Z,8.47
2019-03-19T03:50:38.267Z,7.27
2019-03-19T03:53:05.978Z,7.60
2019-03-19T03:55:33.791Z,7.23
2019-03-19T03:58:01.557Z,7.50
2019-03-19T04:00:29.274Z,8.87
2019-03-19T04:02:57.080Z,8.47
2019-03-19T04:05:24.963Z,7.40
2019-03-19T04:07:52.835Z,7.70
2019-03-19T04:10:20.803Z,7.60
2019-03-19T04:12:48.569Z,8.07
2019-03-19T04:15:16.339Z,7.60
2019-03-19T04:17:44.201Z,7.43
2019-03-19T04:20:11.975Z,7.73
2019-03-19T04:22:39.727Z,7.93
2019-03-19T04:25:07.470Z,8.20
2019-03-19T04:27:35.266Z,7.67
2019-03-19T04:30:03.079Z,7.80
2019-03-19T04:32:31.005Z,8.47
2019-03-19T04:34:58.746Z,8.50
2019-03-19T04:37:26.455Z,8.87
2019-03-19T04:39:54.291Z,8.30
2019-03-19T04:42:22.013Z,8.57
2019-03-19T04:44:49.863Z,8.17
2019-03-19T04:47:17.560Z,8.30
2019-03-19T04:49:45.350Z,8.50
2019-03-19T04:52:13.152Z,9.33
2019-03-19T04:54:40.991Z,8.30
2019-03-19T04:57:08.699Z,8.70
2019-03-19T04:59:36.643Z,8.57
2019-03-19T05:02:04.387Z,9.03
2019-03-19T05:04:32.171Z,8.93
2019-03-19T05:06:59.932Z,8.73
2019-03-19T05:09:27.693Z,8.60
2019-03-19T05:11:55.457Z,9.33
2019-03-19T05:14:23.304Z,9.70
2019-03-19T05:16:51.115Z,9.57
2019-03-19T05:19:18.838Z,9.97
2019-03-19T05:21:46.626Z,9.67
2019-03-19T05:24:14.512Z,10.03
2019-03-19T05:26:42.366Z,9.40
2019-03-19T05:29:10.107Z,9.50
2019-03-19T05:31:37.891Z,9.20
2019-03-19T05:34:05.598Z,9.60
2019-03-19T05:36:33.375Z,9.33
2019-03-19T05:39:01.103Z,9.73
2019-03-19T05:41:28.809Z,8.80
2019-03-19T05:43:56.624Z,9.90
2019-03-19T05:46:24.415Z,9.77
2019-03-19T05:48:52.263Z,10.07
2019-03-19T05:51:20.050Z,9.40
2019-03-19T05:53:47.821Z,9.90
2019-03-19T05:56:15.667Z,9.43
2019-03-19T05:58:46.420Z,8.87
2019-03-19T06:01:14.200Z,9.50
2019-03-19T06:03:42.257Z,10.03
2019-03-19T06:06:09.992Z,9.43
2019-03-19T06:08:37.771Z,9.27
2019-03-19T06:11:05.649Z,10.13
2019-03-19T06:13:33.394Z,10.30
2019-03-19T06:16:01.112Z,9.53
2019-03-19T06:18:35.026Z,10.10
2019-03-19T06:20:58.346Z,9.63
2019-03-19T06:23:27.761Z,10.17
2019-03-19T06:25:55.639Z,9.70
2019-03-19T06:28:23.714Z,9.00
2019-03-19T06:30:51.454Z,9.13
2019-03-19T06:33:21.988Z,8.70
2019-03-19T06:35:49.751Z,9.43
2019-03-19T06:38:17.477Z,9.30
2019-03-19T06:40:45.197Z,10.13
2019-03-19T06:43:13.491Z,9.43
2019-03-19T06:45:41.201Z,9.17
2019-03-19T06:48:09.197Z,10.37
2019-03-19T06:50:45.133Z,10.27
2019-03-19T06:53:06.697Z,10.37
2019-03-19T06:55:34.417Z,9.47
2019-03-19T06:58:10.481Z,9.57
2019-03-19T07:00:31.719Z,9.10
2019-03-19T07:02:59.506Z,9.50
2019-03-19T07:05:27.405Z,9.70
2019-03-19T07:07:55.340Z,9.47
2019-03-19T07:10:23.090Z,9.17
2019-03-19T07:12:50.803Z,9.97
2019-03-19T07:15:18.521Z,9.50
2019-03-19T07:17:46.319Z,10.20
2019-03-19T07:20:14.029Z,10.40
2019-03-19T07:22:41.822Z,9.33
2019-03-19T07:25:09.555Z,9.90
2019-03-19T07:27:37.360Z,9.53
2019-03-19T07:30:05.340Z,9.80
2019-03-19T07:32:33.097Z,10.00
2019-03-19T07:37:48.890Z,9.83
2019-03-19T07:40:16.682Z,10.17
2019-03-19T07:42:44.406Z,10.27
2019-03-19T07:45:12.213Z,9.60
2019-03-19T07:47:39.956Z,9.63
2019-03-19T07:50:07.746Z,9.53
2019-03-19T07:52:35.500Z,9.40
2019-03-19T07:55:03.288Z,9.33
2019-03-19T07:57:31.034Z,9.23
2019-03-19T07:59:58.795Z,9.20
2019-03-19T08:02:26.545Z,9.90
2019-03-19T08:04:54.324Z,9.40
2019-03-19T08:07:22.105Z,8.47
2019-03-19T08:09:49.860Z,9.40
2019-03-19T08:12:17.645Z,8.83
2019-03-19T08:14:45.389Z,9.10
2019-03-19T08:17:13.282Z,8.47
2019-03-19T08:19:41.043Z,9.07
2019-03-19T08:22:11.875Z,8.87
2019-03-19T08:24:39.587Z,8.10
2019-03-19T08:27:07.406Z,8.10
2019-03-19T08:29:35.174Z,8.63
2019-03-19T08:32:02.936Z,8.93
2019-03-19T08:34:30.769Z,9.17
2019-03-19T08:39:59.151Z,8.37
2019-03-19T08:42:27.097Z,8.27
2019-03-19T08:44:54.960Z,9.47
2019-03-19T08:47:22.718Z,8.87
2019-03-19T08:49:50.591Z,9.07
2019-03-19T08:52:18.350Z,10.40
2019-03-19T08:54:46.129Z,8.77
2019-03-19T08:57:13.884Z,8.47
2019-03-19T08:59:41.840Z,8.53
2019-03-19T09:02:09.548Z,8.47
2019-03-19T09:04:37.423Z,7.90
2019-03-19T09:07:05.257Z,8.50
2019-03-19T09:09:33.156Z,8.50
2019-03-19T09:12:00.916Z,8.20
2019-03-19T09:14:28.659Z,7.60
2019-03-19T09:16:56.421Z,8.50
2019-03-19T09:19:24.126Z,7.00
2019-03-19T09:21:51.856Z,7.00
2019-03-19T09:24:19.623Z,8.37
2019-03-19T09:26:47.379Z,8.63
2019-03-19T09:29:17.184Z,7.50
2019-03-19T09:31:44.779Z,9.00
2019-03-19T09:34:12.636Z,7.57
2019-03-19T09:36:40.505Z,7.53
2019-03-19T09:39:08.393Z,7.70
2019-03-19T09:41:36.183Z,7.73
2019-03-19T09:44:04.048Z,8.13
2019-03-19T09:46:31.891Z,7.70
2019-03-19T09:48:59.671Z,8.00
2019-03-19T09:51:27.442Z,8.20
2019-03-19T09:53:55.155Z,8.07
2019-03-19T09:56:22.953Z,8.70
2019-03-19T09:58:51.024Z,8.13
2019-03-19T10:01:18.732Z,8.40
2019-03-19T10:03:46.430Z,7.93
2019-03-19T10:06:14.645Z,7.03
2019-03-19T10:08:42.488Z,7.50
2019-03-19T10:11:10.287Z,7.37
2019-03-19T10:13:38.012Z,6.77
2019-03-19T10:16:07.794Z,7.17
2019-03-19T10:18:35.956Z,7.10
2019-03-19T10:21:03.683Z,6.93
2019-03-19T10:23:33.007Z,6.43
2019-03-19T10:26:00.753Z,7.47
2019-03-19T10:28:28.519Z,7.50
2019-03-19T10:30:56.313Z,7.20
2019-03-19T10:33:24.162Z,6.57
2019-03-19T10:35:55.639Z,6.80
2019-03-19T10:38:34.832Z,6.97
2019-03-19T10:41:02.517Z,6.67
2019-03-19T10:43:30.268Z,7.33
2019-03-19T10:45:58.043Z,7.00
2019-03-19T10:48:25.832Z,6.73
2019-03-19T10:50:53.667Z,6.73
2019-03-19T10:53:21.434Z,6.23
2019-03-19T10:55:49.337Z,6.33
2019-03-19T10:58:17.165Z,6.37
2019-03-19T11:00:45.292Z,6.63
2019-03-19T11:03:15.292Z,6.13
2019-03-19T11:05:43.131Z,6.23
2019-03-19T11:08:10.927Z,5.77
2019-03-19T11:10:38.523Z,5.83
2019-03-19T11:13:05.955Z,6.33
2019-03-19T11:15:33.502Z,6.70
2019-03-19T11:18:01.042Z,6.05
2019-03-19T11:20:28.618Z,5.53
2019-03-19T11:22:56.047Z,6.33
2019-03-19T11:25:23.760Z,6.23
2019-03-19T11:27:51.598Z,5.97
2019-03-19T11:30:19.339Z,5.60
2019-03-19T11:32:47.057Z,5.37
2019-03-19T11:35:14.894Z,5.60
2019-03-19T11:37:42.654Z,5.40
2019-03-19T11:40:10.426Z,5.57
2019-03-19T11:42:38.175Z,5.80
2019-03-19T11:45:05.980Z,5.47
2019-03-19T11:47:33.752Z,5.37
2019-03-19T11:50:01.508Z,4.90
2019-03-19T11:52:29.259Z,5.37
2019-03-19T11:54:57.128Z,5.43
2019-03-19T11:57:24.587Z,5.45
2019-03-19T11:59:52.000Z,5.00
2019-03-19T12:02:25.890Z,5.70
2019-03-19T12:04:48.904Z,5.07
2019-03-19T12:07:16.664Z,5.60
2019-03-19T12:09:44.327Z,5.40
2019-03-19T12:12:12.120Z,5.07
2019-03-19T12:14:39.797Z,6.33
2019-03-19T12:17:07.341Z,5.53
2019-03-19T12:19:34.768Z,4.70
2019-03-19T12:22:02.274Z,4.70
2019-03-19T12:24:29.808Z,5.25
2019-03-19T12:26:57.520Z,4.57
2019-03-19T12:29:25.353Z,5.33
2019-03-19T12:31:53.056Z,4.47
2019-03-19T12:34:20.902Z,5.50
2019-03-19T12:36:48.869Z,5.30
2019-03-19T12:39:16.722Z,4.50
2019-03-19T12:41:44.704Z,4.70
2019-03-19T12:44:12.420Z,4.07
2019-03-19T12:46:40.164Z,4.40
2019-03-19T12:49:07.907Z,4.27
2019-03-19T12:51:35.871Z,4.60
2019-03-19T12:54:07.034Z,4.93
2019-03-19T12:56:34.754Z,5.03
2019-03-19T12:59:02.480Z,4.70
2019-03-19T13:01:30.364Z,4.60
2019-03-19T13:03:58.165Z,4.73
2019-03-19T13:06:25.957Z,5.13
2019-03-19T13:08:53.513Z,4.62
2019-03-19T13:11:20.943Z,4.90
2019-03-19T13:13:48.757Z,4.50
2019-03-19T13:16:16.305Z,4.42
2019-03-19T13:18:43.937Z,4.10
2019-03-19T13:21:11.412Z,4.65
2019-03-19T13:23:38.888Z,4.30
2019-03-19T13:26:06.444Z,4.40
2019-03-19T13:28:33.900Z,5.05
2019-03-19T13:31:01.469Z,4.83
2019-03-19T13:33:29.028Z,4.58
2019-03-19T13:35:56.564Z,4.80
2019-03-19T13:38:24.342Z,4.73
2019-03-19T13:40:51.762Z,4.65
2019-03-19T13:43:19.260Z,4.90
2019-03-19T13:45:46.717Z,4.60
2019-03-19T13:48:14.141Z,4.87
2019-03-19T13:50:41.548Z,5.03
2019-03-19T13:53:09.134Z,5.33
2019-03-19T13:55:36.565Z,5.00
2019-03-19T13:58:03.994Z,5.10
2019-03-19T14:00:31.437Z,4.95
2019-03-19T14:02:59.351Z,5.33
2019-03-19T14:05:27.435Z,5.50
2019-03-19T14:07:55.294Z,4.93
2019-03-19T14:10:23.056Z,5.60
2019-03-19T14:12:50.820Z,4.90
2019-03-19T14:15:18.622Z,5.63
2019-03-19T14:17:46.324Z,5.37
2019-03-19T14:20:14.129Z,5.43
2019-03-19T14:22:41.910Z,5.03
2019-03-19T14:25:09.678Z,5.80
2019-03-19T14:27:37.427Z,6.00
2019-03-19T14:30:05.183Z,5.60
2019-03-19T14:32:33.068Z,5.10
2019-03-19T14:35:00.800Z,5.27
2019-03-19T14:37:28.626Z,5.27
2019-03-19T14:39:56.451Z,4.97
2019-03-19T14:42:24.313Z,6.27
2019-03-19T14:44:52.090Z,4.83
2019-03-19T14:47:19.811Z,5.60
2019-03-19T14:49:49.831Z,4.87
2019-03-19T14:52:17.144Z,4.63
2019-03-19T14:54:44.894Z,4.70
2019-03-19T14:57:12.659Z,4.43
2019-03-19T14:59:40.439Z,5.00
2019-03-19T15:02:08.206Z,5.00
2019-03-19T15:04:35.969Z,5.40
2019-03-19T15:07:03.735Z,6.23
2019-03-19T15:09:31.517Z,5.60
2019-03-19T15:11:59.249Z,6.03
2019-03-19T15:14:26.964Z,5.77
2019-03-19T15:17:04.439Z,5.67
2019-03-19T15:19:24.317Z,6.23
2019-03-19T15:21:52.084Z,5.57
2019-03-19T15:24:19.802Z,6.20
2019-03-19T15:26:47.530Z,5.67
2019-03-19T15:29:15.273Z,5.33
2019-03-19T15:31:43.020Z,5.90
2019-03-19T15:34:10.789Z,5.90
2019-03-19T15:36:40.976Z,7.03
2019-03-19T15:39:08.694Z,6.87
2019-03-19T15:41:36.459Z,6.63
2019-03-19T15:44:04.218Z,7.10
2019-03-19T15:46:31.954Z,6.33
2019-03-19T15:49:00.508Z,6.70
2019-03-19T15:51:28.474Z,6.57
2019-03-19T15:53:56.164Z,7.00
2019-03-19T15:56:23.995Z,7.50
2019-03-19T15:58:51.705Z,8.57
2019-03-19T16:01:19.455Z,8.10
2019-03-19T16:03:47.214Z,12.67
2019-03-19T16:06:15.036Z,7.93
2019-03-19T16:08:42.747Z,7.70
2019-03-19T16:11:10.468Z,7.37
2019-03-19T16:13:38.253Z,7.50
2019-03-19T16:16:05.963Z,7.53
2019-03-19T16:18:33.800Z,7.57
2019-03-19T16:21:01.549Z,8.53
2019-03-19T16:23:29.306Z,7.40
2019-03-19T16:25:57.080Z,8.20
2019-03-19T16:28:24.856Z,8.00
2019-03-19T16:30:52.592Z,8.03
2019-03-19T16:33:20.298Z,8.00
2019-03-19T16:35:48.046Z,7.63
2019-03-19T16:38:15.843Z,8.07
2019-03-19T16:40:43.525Z,8.10
2019-03-19T16:43:11.261Z,7.50
2019-03-19T16:45:38.962Z,7.40
2019-03-19T16:48:06.771Z,8.40
2019-03-19T16:50:34.595Z,8.57
2019-03-19T16:53:02.390Z,7.30
2019-03-19T16:55:30.176Z,7.80
2019-03-19T16:57:58.047Z,7.07
2019-03-19T17:00:25.827Z,7.63
2019-03-19T17:02:53.661Z,8.77
2019-03-19T17:05:21.358Z,7.60
2019-03-19T17:07:49.200Z,7.10
2019-03-19T17:10:16.964Z,8.07
2019-03-19T17:12:44.747Z,8.27
2019-03-19T17:15:12.491Z,9.23
2019-03-19T17:17:40.275Z,10.30
2019-03-19T17:20:08.132Z,12.10
2019-03-19T17:22:35.882Z,10.17
2019-03-19T17:25:03.675Z,8.57
2019-03-19T17:27:31.089Z,7.97
2019-03-19T17:29:58.593Z,7.90
2019-03-19T17:32:26.029Z,7.80
2019-03-19T17:34:53.824Z,9.37
2019-03-19T17:37:21.694Z,8.70
2019-03-19T17:39:49.551Z,9.90
2019-03-19T17:42:17.293Z,9.97
2019-03-19T17:44:45.039Z,11.47
2019-03-19T17:47:12.839Z,11.50
2019-03-19T17:49:40.628Z,10.90
2019-03-19T17:52:08.364Z,9.13
2019-03-19T17:54:36.181Z,10.40
2019-03-19T17:57:04.128Z,10.83
2019-03-19T17:59:31.844Z,12.43
2019-03-19T18:01:59.565Z,12.77
2019-03-19T18:04:27.287Z,15.73
2019-03-19T18:06:55.017Z,16.37
2019-03-19T18:09:22.442Z,18.65
2019-03-19T18:11:49.868Z,16.50
2019-03-19T18:14:17.343Z,16.93
2019-03-19T18:16:45.135Z,17.83
2019-03-19T18:19:12.948Z,17.40
2019-03-19T18:21:40.663Z,16.63
2019-03-19T18:24:08.443Z,17.40
2019-03-19T18:26:36.301Z,18.53
2019-03-19T18:29:04.155Z,13.97
2019-03-19T18:31:32.035Z,12.60
2019-03-19T18:34:09.979Z,14.47
2019-03-19T18:36:29.340Z,13.60
2019-03-19T18:38:57.056Z,14.43
2019-03-19T18:41:25.889Z,14.70
2019-03-19T18:43:53.730Z,17.00
2019-03-19T18:46:21.464Z,15.87
2019-03-19T18:48:49.260Z,15.23
2019-03-19T18:51:17.134Z,12.30
2019-03-19T18:53:44.832Z,12.17
2019-03-19T18:56:12.663Z,11.20
2019-03-19T18:58:40.440Z,11.00
2019-03-19T19:01:08.355Z,11.13
2019-03-19T19:03:36.187Z,11.90
2019-03-19T19:06:04.026Z,12.27
2019-03-19T19:08:31.797Z,13.30
2019-03-19T19:10:59.591Z,12.57
2019-03-19T19:13:27.308Z,13.07
2019-03-19T19:15:55.104Z,13.80
2019-03-19T19:18:22.865Z,12.93
2019-03-19T19:20:50.633Z,12.67
2019-03-19T19:23:18.380Z,13.50
2019-03-19T19:25:46.095Z,15.80
2019-03-19T19:28:13.986Z,16.73
2019-03-19T19:30:41.733Z,16.50
2019-03-19T19:33:09.556Z,16.60
2019-03-19T19:35:37.266Z,15.13
2019-03-19T19:38:05.105Z,14.33
2019-03-19T19:40:32.820Z,13.87
2019-03-19T19:43:00.546Z,15.17
2019-03-19T19:45:28.297Z,14.93
2019-03-19T19:47:56.069Z,14.07
2019-03-19T19:50:23.830Z,15.03
2019-03-19T19:52:51.557Z,14.40
2019-03-19T19:55:19.274Z,14.53
2019-03-19T19:57:47.246Z,13.30
2019-03-19T20:00:14.995Z,14.00
2019-03-19T20:02:42.707Z,15.17
2019-03-19T20:05:10.540Z,15.20
2019-03-19T20:07:38.268Z,15.33
2019-03-19T20:10:05.974Z,15.47
2019-03-19T20:12:33.883Z,16.40
2019-03-19T20:15:01.604Z,15.60
2019-03-19T20:17:29.386Z,17.50
2019-03-19T20:19:57.245Z,18.00
2019-03-19T20:22:24.973Z,19.37
2019-03-19T20:24:52.713Z,15.80
2019-03-19T20:27:20.440Z,16.17
2019-03-19T20:29:48.207Z,15.17
2019-03-19T20:32:15.956Z,15.90
2019-03-19T20:34:43.702Z,16.67
2019-03-19T20:37:11.491Z,17.00
2019-03-19T20:39:39.316Z,16.43
2019-03-19T20:42:07.025Z,16.10
2019-03-19T20:44:34.771Z,16.93
2019-03-19T20:47:02.476Z,16.33
2019-03-19T20:49:30.224Z,17.43
2019-03-19T20:51:57.987Z,16.80
2019-03-19T20:54:25.794Z,16.37
2019-03-19T20:56:53.624Z,18.83
2019-03-19T20:59:21.380Z,22.13
2019-03-19T21:01:49.125Z,20.90
2019-03-19T21:04:16.915Z,19.90
2019-03-19T21:06:44.690Z,19.27
2019-03-19T21:09:12.407Z,20.03
2019-03-19T21:11:40.134Z,21.73
2019-03-19T21:14:07.852Z,21.43
2019-03-19T21:16:35.579Z,22.53
2019-03-19T21:19:03.310Z,22.20
2019-03-19T21:21:31.096Z,22.60
2019-03-19T21:23:58.810Z,22.53
2019-03-19T21:26:26.644Z,20.20
2019-03-19T21:28:54.392Z,20.60
2019-03-19T21:31:22.105Z,20.57
2019-03-19T21:33:51.343Z,18.07
2019-03-19T21:36:19.354Z,15.40
2019-03-19T21:38:47.077Z,16.57
2019-03-19T21:41:14.786Z,15.20
2019-03-19T21:43:42.735Z,15.27
2019-03-19T21:46:10.600Z,15.37
2019-03-19T21:48:38.389Z,14.00
2019-03-19T21:51:06.124Z,13.33
2019-03-19T21:53:34.030Z,12.73
2019-03-19T21:56:01.853Z,14.00
2019-03-19T21:58:29.618Z,12.77
2019-03-19T22:00:57.403Z,13.10
2019-03-19T22:03:25.129Z,13.53
2019-03-19T22:05:52.916Z,20.90
2019-03-19T22:08:20.685Z,12.33
2019-03-19T22:10:48.414Z,12.73
2019-03-19T22:13:16.221Z,12.07
2019-03-19T22:15:43.981Z,11.93
2019-03-19T22:18:12.374Z,12.00
2019-03-19T22:20:40.145Z,11.40
2019-03-19T22:23:07.874Z,11.73
2019-03-19T22:25:35.657Z,11.13
2019-03-19T22:28:06.205Z,11.90
2019-03-19T22:30:33.923Z,10.87
2019-03-19T22:33:01.744Z,10.80
2019-03-19T22:35:29.606Z,11.03
2019-03-19T22:37:57.372Z,10.43
2019-03-19T22:40:25.098Z,10.97
2019-03-19T22:42:52.932Z,11.07
2019-03-19T22:45:20.776Z,10.40
2019-03-19T22:47:48.540Z,10.77
2019-03-19T22:50:16.319Z,10.77
2019-03-19T22:52:44.478Z,10.67
2019-03-19T22:55:12.266Z,10.63
2019-03-19T22:57:40.013Z,10.30
2019-03-19T23:00:08.018Z,10.77
2019-03-19T23:02:35.739Z,10.83
2019-03-19T23:05:03.518Z,11.07
2019-03-19T23:07:31.295Z,10.00
2019-03-19T23:09:59.903Z,10.50
2019-03-19T23:12:27.737Z,10.43
2019-03-19T23:14:55.536Z,10.03
2019-03-19T23:17:23.407Z,9.90
2019-03-19T23:19:51.280Z,10.23
2019-03-19T23:22:22.111Z,9.67
2019-03-19T23:24:53.381Z,10.20
2019-03-19T23:27:22.364Z,10.27
2019-03-19T23:29:51.749Z,10.03
2019-03-19T23:32:24.762Z,10.30
2019-03-19T23:34:55.630Z,10.27
2019-03-19T23:37:24.177Z,10.13
2019-03-19T23:39:51.956Z,9.78
2019-03-19T23:42:19.586Z,10.80
2019-03-19T23:44:47.149Z,10.90
2019-03-19T23:47:14.606Z,9.95
2019-03-19T23:49:42.338Z,11.07
2019-03-19T23:52:10.090Z,11.17
2019-03-19T23:54:37.835Z,11.47
2019-03-19T23:57:05.658Z,9.97
2019-03-19T23:59:33.537Z,10.80
